sensor_id;sensor_type;location;lat;lon;timestamp;P1;durP1;ratioP1;P2;durP2;ratioP2
35434;SDS011;21556;55.782;37.528;2023-01-01T00:01:10;18.13;;;10.97;;
35434;SDS011;21556;55.782;37.528;2023-01-01T00:03:36;16.23;;;11.50;;
35434;SDS011;21556;55.782;37.528;2023-01-01T00:06:05;17.03;;;11.90;;
35434;SDS011;21556;55.782;37.528;2023-01-01T00:08:31;15.60;;;10.07;;
35434;SDS011;21556;55.782;37.528;2023-01-01T00:10:59;15.10;;;9.90;;
35434;SDS011;21556;55.782;37.528;2023-01-01T00:13:25;10.13;;;7.40;;
35434;SDS011;21556;55.782;37.528;2023-01-01T00:15:50;13.70;;;9.87;;
35434;SDS011;21556;55.782;37.528;2023-01-01T00:18:16;10.83;;;8.70;;
35434;SDS011;21556;55.782;37.528;2023-01-01T00:20:41;11.97;;;8.03;;
35434;SDS011;21556;55.782;37.528;2023-01-01T00:23:07;9.23;;;7.67;;
35434;SDS011;21556;55.782;37.528;2023-01-01T00:25:33;12.10;;;8.23;;
35434;SDS011;21556;55.782;37.528;2023-01-01T00:27:58;12.47;;;8.13;;
35434;SDS011;21556;55.782;37.528;2023-01-01T00:30:24;14.23;;;10.90;;
35434;SDS011;21556;55.782;37.528;2023-01-01T00:32:49;13.20;;;9.97;;
35434;SDS011;21556;55.782;37.528;2023-01-01T00:35:16;12.27;;;8.73;;
35434;SDS011;21556;55.782;37.528;2023-01-01T00:37:42;10.13;;;7.83;;
35434;SDS011;21556;55.782;37.528;2023-01-01T00:40:09;10.37;;;7.60;;
35434;SDS011;21556;55.782;37.528;2023-01-01T00:42:34;11.47;;;7.70;;
35434;SDS011;21556;55.782;37.528;2023-01-01T00:45:04;7.83;;;6.07;;
35434;SDS011;21556;55.782;37.528;2023-01-01T00:47:30;9.63;;;6.70;;
35434;SDS011;21556;55.782;37.528;2023-01-01T00:49:56;7.37;;;5.90;;
35434;SDS011;21556;55.782;37.528;2023-01-01T00:52:22;10.63;;;6.53;;
35434;SDS011;21556;55.782;37.528;2023-01-01T00:54:48;8.30;;;5.60;;
35434;SDS011;21556;55.782;37.528;2023-01-01T00:57:14;7.90;;;5.93;;
35434;SDS011;21556;55.782;37.528;2023-01-01T00:59:39;8.37;;;5.70;;
35434;SDS011;21556;55.782;37.528;2023-01-01T01:02:05;9.93;;;5.40;;
35434;SDS011;21556;55.782;37.528;2023-01-01T01:04:31;7.70;;;5.37;;
35434;SDS011;21556;55.782;37.528;2023-01-01T01:06:56;9.40;;;6.60;;
35434;SDS011;21556;55.782;37.528;2023-01-01T01:09:22;7.53;;;5.20;;
35434;SDS011;21556;55.782;37.528;2023-01-01T01:11:47;8.83;;;5.97;;
35434;SDS011;21556;55.782;37.528;2023-01-01T01:14:13;7.73;;;5.33;;
35434;SDS011;21556;55.782;37.528;2023-01-01T01:16:39;8.83;;;5.37;;
35434;SDS011;21556;55.782;37.528;2023-01-01T01:19:04;7.47;;;4.90;;
35434;SDS011;21556;55.782;37.528;2023-01-01T01:21:31;6.43;;;4.47;;
35434;SDS011;21556;55.782;37.528;2023-01-01T01:23:58;7.40;;;5.40;;
35434;SDS011;21556;55.782;37.528;2023-01-01T01:26:28;7.50;;;5.80;;
35434;SDS011;21556;55.782;37.528;2023-01-01T01:28:54;7.10;;;4.80;;
35434;SDS011;21556;55.782;37.528;2023-01-01T01:31:20;7.60;;;5.20;;
35434;SDS011;21556;55.782;37.528;2023-01-01T01:33:46;7.23;;;5.53;;
35434;SDS011;21556;55.782;37.528;2023-01-01T01:36:13;7.10;;;5.30;;
35434;SDS011;21556;55.782;37.528;2023-01-01T01:38:38;6.83;;;4.83;;
35434;SDS011;21556;55.782;37.528;2023-01-01T01:41:04;7.87;;;5.37;;
35434;SDS011;21556;55.782;37.528;2023-01-01T01:48:27;7.17;;;4.83;;
35434;SDS011;21556;55.782;37.528;2023-01-01T01:50:53;5.73;;;4.47;;
35434;SDS011;21556;55.782;37.528;2023-01-01T01:53:22;4.87;;;3.73;;
35434;SDS011;21556;55.782;37.528;2023-01-01T01:55:50;5.77;;;4.63;;
35434;SDS011;21556;55.782;37.528;2023-01-01T01:58:16;6.07;;;4.27;;
35434;SDS011;21556;55.782;37.528;2023-01-01T02:00:42;5.60;;;4.43;;
35434;SDS011;21556;55.782;37.528;2023-01-01T02:03:09;6.13;;;4.57;;
35434;SDS011;21556;55.782;37.528;2023-01-01T02:05:35;7.40;;;3.93;;
35434;SDS011;21556;55.782;37.528;2023-01-01T02:08:04;5.50;;;4.50;;
35434;SDS011;21556;55.782;37.528;2023-01-01T02:10:30;5.70;;;4.50;;
35434;SDS011;21556;55.782;37.528;2023-01-01T02:12:56;4.40;;;3.80;;
35434;SDS011;21556;55.782;37.528;2023-01-01T02:15:52;6.10;;;4.30;;
35434;SDS011;21556;55.782;37.528;2023-01-01T02:18:31;6.47;;;4.17;;
35434;SDS011;21556;55.782;37.528;2023-01-01T02:23:30;4.83;;;3.87;;
35434;SDS011;21556;55.782;37.528;2023-01-01T02:30:58;3.63;;;2.97;;
35434;SDS011;21556;55.782;37.528;2023-01-01T02:33:24;6.97;;;4.50;;
35434;SDS011;21556;55.782;37.528;2023-01-01T02:36:00;5.70;;;4.47;;
35434;SDS011;21556;55.782;37.528;2023-01-01T02:41:02;5.03;;;4.53;;
35434;SDS011;21556;55.782;37.528;2023-01-01T02:43:29;5.10;;;4.43;;
35434;SDS011;21556;55.782;37.528;2023-01-01T02:45:55;6.73;;;4.30;;
35434;SDS011;21556;55.782;37.528;2023-01-01T02:50:58;6.43;;;4.72;;
35434;SDS011;21556;55.782;37.528;2023-01-01T02:53:29;5.53;;;4.13;;
35434;SDS011;21556;55.782;37.528;2023-01-01T02:56:03;5.97;;;4.80;;
35434;SDS011;21556;55.782;37.528;2023-01-01T02:58:34;7.63;;;4.57;;
35434;SDS011;21556;55.782;37.528;2023-01-01T03:01:27;6.13;;;4.13;;
35434;SDS011;21556;55.782;37.528;2023-01-01T03:04:00;6.07;;;5.10;;
35434;SDS011;21556;55.782;37.528;2023-01-01T03:11:25;6.83;;;4.33;;
35434;SDS011;21556;55.782;37.528;2023-01-01T03:16:24;7.55;;;4.97;;
35434;SDS011;21556;55.782;37.528;2023-01-01T03:21:39;6.20;;;4.87;;
35434;SDS011;21556;55.782;37.528;2023-01-01T03:24:06;5.93;;;4.27;;
35434;SDS011;21556;55.782;37.528;2023-01-01T03:26:33;5.30;;;4.80;;
35434;SDS011;21556;55.782;37.528;2023-01-01T03:29:00;5.95;;;5.43;;
35434;SDS011;21556;55.782;37.528;2023-01-01T03:31:27;5.53;;;4.77;;
35434;SDS011;21556;55.782;37.528;2023-01-01T03:34:04;5.67;;;4.53;;
35434;SDS011;21556;55.782;37.528;2023-01-01T03:36:31;6.47;;;5.60;;
35434;SDS011;21556;55.782;37.528;2023-01-01T03:39:01;6.77;;;4.93;;
35434;SDS011;21556;55.782;37.528;2023-01-01T03:44:06;6.87;;;4.97;;
35434;SDS011;21556;55.782;37.528;2023-01-01T03:46:34;7.37;;;5.50;;
35434;SDS011;21556;55.782;37.528;2023-01-01T03:49:00;7.83;;;6.20;;
35434;SDS011;21556;55.782;37.528;2023-01-01T03:53:54;7.60;;;5.73;;
35434;SDS011;21556;55.782;37.528;2023-01-01T03:58:51;9.25;;;5.72;;
35434;SDS011;21556;55.782;37.528;2023-01-01T04:03:46;6.68;;;5.40;;
35434;SDS011;21556;55.782;37.528;2023-01-01T04:06:13;7.27;;;6.03;;
35434;SDS011;21556;55.782;37.528;2023-01-01T04:08:39;7.30;;;5.70;;
35434;SDS011;21556;55.782;37.528;2023-01-01T04:11:06;7.23;;;5.47;;
35434;SDS011;21556;55.782;37.528;2023-01-01T04:13:54;8.00;;;5.37;;
35434;SDS011;21556;55.782;37.528;2023-01-01T04:16:21;8.73;;;6.53;;
35434;SDS011;21556;55.782;37.528;2023-01-01T04:18:46;7.80;;;6.20;;
35434;SDS011;21556;55.782;37.528;2023-01-01T04:21:12;7.47;;;5.87;;
35434;SDS011;21556;55.782;37.528;2023-01-01T04:23:37;9.10;;;6.90;;
35434;SDS011;21556;55.782;37.528;2023-01-01T04:26:03;6.87;;;6.13;;
35434;SDS011;21556;55.782;37.528;2023-01-01T04:28:29;8.83;;;6.97;;
35434;SDS011;21556;55.782;37.528;2023-01-01T04:30:54;7.67;;;5.97;;
35434;SDS011;21556;55.782;37.528;2023-01-01T04:33:20;8.13;;;6.40;;
35434;SDS011;21556;55.782;37.528;2023-01-01T04:35:46;9.30;;;7.00;;
35434;SDS011;21556;55.782;37.528;2023-01-01T04:38:12;8.97;;;6.77;;
35434;SDS011;21556;55.782;37.528;2023-01-01T04:40:39;11.27;;;6.23;;
35434;SDS011;21556;55.782;37.528;2023-01-01T04:43:04;7.70;;;6.63;;
35434;SDS011;21556;55.782;37.528;2023-01-01T04:45:30;8.00;;;6.43;;
35434;SDS011;21556;55.782;37.528;2023-01-01T04:48:02;7.43;;;6.40;;
35434;SDS011;21556;55.782;37.528;2023-01-01T04:50:27;8.33;;;6.23;;
35434;SDS011;21556;55.782;37.528;2023-01-01T04:52:53;7.00;;;6.00;;
35434;SDS011;21556;55.782;37.528;2023-01-01T04:55:19;7.63;;;6.00;;
35434;SDS011;21556;55.782;37.528;2023-01-01T04:57:44;7.53;;;6.00;;
35434;SDS011;21556;55.782;37.528;2023-01-01T05:00:10;7.97;;;6.30;;
35434;SDS011;21556;55.782;37.528;2023-01-01T05:02:37;8.80;;;6.47;;
35434;SDS011;21556;55.782;37.528;2023-01-01T05:05:03;7.53;;;6.07;;
35434;SDS011;21556;55.782;37.528;2023-01-01T05:07:29;8.73;;;6.70;;
35434;SDS011;21556;55.782;37.528;2023-01-01T05:09:54;8.03;;;5.93;;
35434;SDS011;21556;55.782;37.528;2023-01-01T05:12:20;8.13;;;6.33;;
35434;SDS011;21556;55.782;37.528;2023-01-01T05:14:45;7.40;;;5.97;;
35434;SDS011;21556;55.782;37.528;2023-01-01T05:17:11;8.23;;;6.80;;
35434;SDS011;21556;55.782;37.528;2023-01-01T05:19:37;6.60;;;5.63;;
35434;SDS011;21556;55.782;37.528;2023-01-01T05:22:02;14.93;;;6.10;;
35434;SDS011;21556;55.782;37.528;2023-01-01T05:24:28;7.30;;;6.13;;
35434;SDS011;21556;55.782;37.528;2023-01-01T05:26:55;6.87;;;6.17;;
35434;SDS011;21556;55.782;37.528;2023-01-01T05:29:21;8.50;;;6.10;;
35434;SDS011;21556;55.782;37.528;2023-01-01T05:31:48;7.37;;;6.00;;
35434;SDS011;21556;55.782;37.528;2023-01-01T05:34:14;8.30;;;6.10;;
35434;SDS011;21556;55.782;37.528;2023-01-01T05:36:39;7.97;;;5.90;;
35434;SDS011;21556;55.782;37.528;2023-01-01T05:39:06;7.47;;;6.27;;
35434;SDS011;21556;55.782;37.528;2023-01-01T05:41:32;7.33;;;5.87;;
35434;SDS011;21556;55.782;37.528;2023-01-01T05:44:01;8.40;;;5.95;;
35434;SDS011;21556;55.782;37.528;2023-01-01T05:46:27;7.47;;;6.03;;
35434;SDS011;21556;55.782;37.528;2023-01-01T05:48:52;7.87;;;6.43;;
35434;SDS011;21556;55.782;37.528;2023-01-01T05:51:22;8.10;;;6.27;;
35434;SDS011;21556;55.782;37.528;2023-01-01T05:53:49;7.77;;;5.90;;
35434;SDS011;21556;55.782;37.528;2023-01-01T05:56:14;6.13;;;5.53;;
35434;SDS011;21556;55.782;37.528;2023-01-01T05:58:40;8.30;;;5.67;;
35434;SDS011;21556;55.782;37.528;2023-01-01T06:01:07;6.73;;;5.37;;
35434;SDS011;21556;55.782;37.528;2023-01-01T06:03:34;6.50;;;5.50;;
35434;SDS011;21556;55.782;37.528;2023-01-01T06:06:06;7.10;;;5.53;;
35434;SDS011;21556;55.782;37.528;2023-01-01T06:08:32;7.77;;;6.00;;
35434;SDS011;21556;55.782;37.528;2023-01-01T06:11:01;6.33;;;5.10;;
35434;SDS011;21556;55.782;37.528;2023-01-01T06:13:27;6.10;;;5.50;;
35434;SDS011;21556;55.782;37.528;2023-01-01T06:15:54;6.03;;;5.40;;
35434;SDS011;21556;55.782;37.528;2023-01-01T06:18:19;6.27;;;4.83;;
35434;SDS011;21556;55.782;37.528;2023-01-01T06:20:45;7.13;;;5.20;;
35434;SDS011;21556;55.782;37.528;2023-01-01T06:23:10;7.53;;;5.30;;
35434;SDS011;21556;55.782;37.528;2023-01-01T06:25:36;7.20;;;5.23;;
35434;SDS011;21556;55.782;37.528;2023-01-01T06:28:02;6.10;;;4.93;;
35434;SDS011;21556;55.782;37.528;2023-01-01T06:30:27;5.37;;;4.67;;
35434;SDS011;21556;55.782;37.528;2023-01-01T06:32:53;5.27;;;4.73;;
35434;SDS011;21556;55.782;37.528;2023-01-01T06:35:18;5.47;;;4.47;;
35434;SDS011;21556;55.782;37.528;2023-01-01T06:37:45;5.40;;;4.47;;
35434;SDS011;21556;55.782;37.528;2023-01-01T06:40:10;5.53;;;4.30;;
35434;SDS011;21556;55.782;37.528;2023-01-01T06:42:36;6.00;;;4.87;;
35434;SDS011;21556;55.782;37.528;2023-01-01T06:45:02;4.97;;;4.40;;
35434;SDS011;21556;55.782;37.528;2023-01-01T06:47:28;6.50;;;4.10;;
35434;SDS011;21556;55.782;37.528;2023-01-01T06:49:57;4.30;;;3.57;;
35434;SDS011;21556;55.782;37.528;2023-01-01T06:52:22;5.93;;;4.00;;
35434;SDS011;21556;55.782;37.528;2023-01-01T06:54:48;4.57;;;4.17;;
35434;SDS011;21556;55.782;37.528;2023-01-01T06:57:14;4.90;;;4.40;;
35434;SDS011;21556;55.782;37.528;2023-01-01T06:59:40;6.13;;;4.03;;
35434;SDS011;21556;55.782;37.528;2023-01-01T07:02:07;4.63;;;4.13;;
35434;SDS011;21556;55.782;37.528;2023-01-01T07:04:33;4.70;;;3.80;;
35434;SDS011;21556;55.782;37.528;2023-01-01T07:06:59;4.60;;;3.73;;
35434;SDS011;21556;55.782;37.528;2023-01-01T07:09:25;4.93;;;4.10;;
35434;SDS011;21556;55.782;37.528;2023-01-01T07:11:51;4.40;;;3.93;;
35434;SDS011;21556;55.782;37.528;2023-01-01T07:14:16;5.37;;;3.80;;
35434;SDS011;21556;55.782;37.528;2023-01-01T07:16:43;6.93;;;4.30;;
35434;SDS011;21556;55.782;37.528;2023-01-01T07:19:08;4.57;;;3.70;;
35434;SDS011;21556;55.782;37.528;2023-01-01T07:21:42;4.43;;;3.73;;
35434;SDS011;21556;55.782;37.528;2023-01-01T07:24:09;4.70;;;4.20;;
35434;SDS011;21556;55.782;37.528;2023-01-01T07:26:35;5.07;;;4.13;;
35434;SDS011;21556;55.782;37.528;2023-01-01T07:29:00;4.93;;;4.30;;
35434;SDS011;21556;55.782;37.528;2023-01-01T07:31:26;4.10;;;3.63;;
35434;SDS011;21556;55.782;37.528;2023-01-01T07:33:54;4.63;;;3.88;;
35434;SDS011;21556;55.782;37.528;2023-01-01T07:36:20;5.47;;;4.30;;
35434;SDS011;21556;55.782;37.528;2023-01-01T07:38:45;4.83;;;3.50;;
35434;SDS011;21556;55.782;37.528;2023-01-01T07:41:11;5.97;;;4.33;;
35434;SDS011;21556;55.782;37.528;2023-01-01T07:43:36;4.10;;;3.70;;
35434;SDS011;21556;55.782;37.528;2023-01-01T07:46:02;4.93;;;3.93;;
35434;SDS011;21556;55.782;37.528;2023-01-01T07:48:28;4.50;;;3.90;;
35434;SDS011;21556;55.782;37.528;2023-01-01T07:50:54;4.60;;;3.50;;
35434;SDS011;21556;55.782;37.528;2023-01-01T07:53:19;4.80;;;3.80;;
35434;SDS011;21556;55.782;37.528;2023-01-01T07:55:45;4.73;;;4.13;;
35434;SDS011;21556;55.782;37.528;2023-01-01T07:58:11;5.47;;;4.17;;
35434;SDS011;21556;55.782;37.528;2023-01-01T08:00:37;6.10;;;4.33;;
35434;SDS011;21556;55.782;37.528;2023-01-01T08:03:02;5.07;;;4.20;;
35434;SDS011;21556;55.782;37.528;2023-01-01T08:05:28;4.77;;;4.27;;
35434;SDS011;21556;55.782;37.528;2023-01-01T08:07:54;5.30;;;4.40;;
35434;SDS011;21556;55.782;37.528;2023-01-01T08:10:20;6.00;;;4.20;;
35434;SDS011;21556;55.782;37.528;2023-01-01T08:12:46;4.67;;;3.90;;
35434;SDS011;21556;55.782;37.528;2023-01-01T08:15:12;5.17;;;4.53;;
35434;SDS011;21556;55.782;37.528;2023-01-01T08:17:38;6.03;;;4.23;;
35434;SDS011;21556;55.782;37.528;2023-01-01T08:20:04;6.77;;;4.60;;
35434;SDS011;21556;55.782;37.528;2023-01-01T08:22:30;5.25;;;4.30;;
35434;SDS011;21556;55.782;37.528;2023-01-01T08:24:56;4.67;;;4.20;;
35434;SDS011;21556;55.782;37.528;2023-01-01T08:27:21;5.43;;;4.40;;
35434;SDS011;21556;55.782;37.528;2023-01-01T08:29:47;5.53;;;5.00;;
35434;SDS011;21556;55.782;37.528;2023-01-01T08:32:13;4.37;;;3.93;;
35434;SDS011;21556;55.782;37.528;2023-01-01T08:34:38;5.80;;;3.85;;
35434;SDS011;21556;55.782;37.528;2023-01-01T08:37:04;4.80;;;4.07;;
35434;SDS011;21556;55.782;37.528;2023-01-01T08:39:30;4.73;;;4.20;;
35434;SDS011;21556;55.782;37.528;2023-01-01T08:41:55;5.13;;;4.63;;
35434;SDS011;21556;55.782;37.528;2023-01-01T08:44:21;5.63;;;4.33;;
35434;SDS011;21556;55.782;37.528;2023-01-01T08:46:47;5.28;;;4.45;;
35434;SDS011;21556;55.782;37.528;2023-01-01T08:49:12;5.57;;;4.75;;
35434;SDS011;21556;55.782;37.528;2023-01-01T08:51:38;6.27;;;4.67;;
35434;SDS011;21556;55.782;37.528;2023-01-01T08:54:04;6.10;;;4.60;;
35434;SDS011;21556;55.782;37.528;2023-01-01T08:56:31;6.03;;;5.00;;
35434;SDS011;21556;55.782;37.528;2023-01-01T08:58:56;7.05;;;5.40;;
35434;SDS011;21556;55.782;37.528;2023-01-01T09:01:22;7.88;;;5.13;;
35434;SDS011;21556;55.782;37.528;2023-01-01T09:03:50;4.55;;;3.65;;
35434;SDS011;21556;55.782;37.528;2023-01-01T09:06:16;6.45;;;4.97;;
35434;SDS011;21556;55.782;37.528;2023-01-01T09:08:41;6.13;;;4.70;;
35434;SDS011;21556;55.782;37.528;2023-01-01T09:11:14;8.07;;;5.50;;
35434;SDS011;21556;55.782;37.528;2023-01-01T09:13:44;7.20;;;5.15;;
35434;SDS011;21556;55.782;37.528;2023-01-01T09:16:10;6.87;;;5.03;;
35434;SDS011;21556;55.782;37.528;2023-01-01T09:18:35;7.03;;;5.70;;
35434;SDS011;21556;55.782;37.528;2023-01-01T09:21:01;6.03;;;5.43;;
35434;SDS011;21556;55.782;37.528;2023-01-01T09:23:26;7.15;;;5.50;;
35434;SDS011;21556;55.782;37.528;2023-01-01T09:25:52;6.78;;;5.55;;
35434;SDS011;21556;55.782;37.528;2023-01-01T09:28:18;9.05;;;5.80;;
35434;SDS011;21556;55.782;37.528;2023-01-01T09:30:43;8.63;;;5.47;;
35434;SDS011;21556;55.782;37.528;2023-01-01T09:33:09;8.63;;;6.07;;
35434;SDS011;21556;55.782;37.528;2023-01-01T09:35:34;7.30;;;5.73;;
35434;SDS011;21556;55.782;37.528;2023-01-01T09:38:02;8.18;;;5.72;;
35434;SDS011;21556;55.782;37.528;2023-01-01T09:40:44;8.48;;;6.03;;
35434;SDS011;21556;55.782;37.528;2023-01-01T09:43:13;7.63;;;5.50;;
35434;SDS011;21556;55.782;37.528;2023-01-01T09:48:23;8.57;;;5.85;;
35434;SDS011;21556;55.782;37.528;2023-01-01T09:50:50;8.13;;;5.77;;
35434;SDS011;21556;55.782;37.528;2023-01-01T09:58:15;9.65;;;6.38;;
35434;SDS011;21556;55.782;37.528;2023-01-01T10:00:45;7.57;;;5.33;;
35434;SDS011;21556;55.782;37.528;2023-01-01T10:03:55;5.68;;;4.40;;
35434;SDS011;21556;55.782;37.528;2023-01-01T10:16:00;9.00;;;6.10;;
35434;SDS011;21556;55.782;37.528;2023-01-01T10:18:32;6.20;;;4.18;;
35434;SDS011;21556;55.782;37.528;2023-01-01T10:21:08;6.55;;;5.65;;
35434;SDS011;21556;55.782;37.528;2023-01-01T10:26:08;7.18;;;5.72;;
35434;SDS011;21556;55.782;37.528;2023-01-01T10:28:39;8.97;;;6.03;;
35434;SDS011;21556;55.782;37.528;2023-01-01T10:33:39;7.77;;;5.97;;
35434;SDS011;21556;55.782;37.528;2023-01-01T10:36:06;6.38;;;4.80;;
35434;SDS011;21556;55.782;37.528;2023-01-01T10:38:34;6.22;;;4.97;;
35434;SDS011;21556;55.782;37.528;2023-01-01T10:41:07;6.50;;;4.85;;
35434;SDS011;21556;55.782;37.528;2023-01-01T10:43:33;6.93;;;5.32;;
35434;SDS011;21556;55.782;37.528;2023-01-01T10:45:59;6.70;;;5.35;;
35434;SDS011;21556;55.782;37.528;2023-01-01T10:48:27;6.47;;;5.07;;
35434;SDS011;21556;55.782;37.528;2023-01-01T10:50:55;6.28;;;4.90;;
35434;SDS011;21556;55.782;37.528;2023-01-01T10:58:53;6.45;;;5.28;;
35434;SDS011;21556;55.782;37.528;2023-01-01T11:01:21;6.60;;;5.05;;
35434;SDS011;21556;55.782;37.528;2023-01-01T11:06:19;5.78;;;4.88;;
35434;SDS011;21556;55.782;37.528;2023-01-01T11:08:53;5.53;;;4.53;;
35434;SDS011;21556;55.782;37.528;2023-01-01T11:11:20;4.90;;;4.32;;
35434;SDS011;21556;55.782;37.528;2023-01-01T11:13:47;5.00;;;4.47;;
35434;SDS011;21556;55.782;37.528;2023-01-01T11:16:13;5.13;;;4.63;;
35434;SDS011;21556;55.782;37.528;2023-01-01T11:18:39;7.38;;;4.35;;
35434;SDS011;21556;55.782;37.528;2023-01-01T11:21:04;5.82;;;4.47;;
35434;SDS011;21556;55.782;37.528;2023-01-01T11:23:37;5.80;;;4.67;;
35434;SDS011;21556;55.782;37.528;2023-01-01T11:28:30;5.38;;;4.18;;
35434;SDS011;21556;55.782;37.528;2023-01-01T11:31:14;4.40;;;3.50;;
35434;SDS011;21556;55.782;37.528;2023-01-01T11:33:45;5.50;;;4.15;;
35434;SDS011;21556;55.782;37.528;2023-01-01T11:36:18;5.07;;;4.22;;
35434;SDS011;21556;55.782;37.528;2023-01-01T11:38:44;5.40;;;4.05;;
35434;SDS011;21556;55.782;37.528;2023-01-01T11:41:13;4.07;;;3.67;;
35434;SDS011;21556;55.782;37.528;2023-01-01T11:43:39;5.28;;;4.15;;
35434;SDS011;21556;55.782;37.528;2023-01-01T11:46:09;7.55;;;4.78;;
35434;SDS011;21556;55.782;37.528;2023-01-01T11:48:35;5.28;;;4.00;;
35434;SDS011;21556;55.782;37.528;2023-01-01T11:51:02;4.00;;;3.60;;
35434;SDS011;21556;55.782;37.528;2023-01-01T11:53:29;5.80;;;4.30;;
35434;SDS011;21556;55.782;37.528;2023-01-01T11:58:23;3.90;;;3.50;;
35434;SDS011;21556;55.782;37.528;2023-01-01T12:00:53;5.40;;;3.95;;
35434;SDS011;21556;55.782;37.528;2023-01-01T12:03:29;4.22;;;3.80;;
35434;SDS011;21556;55.782;37.528;2023-01-01T12:09:26;4.05;;;3.63;;
35434;SDS011;21556;55.782;37.528;2023-01-01T12:19:14;4.28;;;3.42;;
35434;SDS011;21556;55.782;37.528;2023-01-01T12:21:42;4.38;;;3.50;;
35434;SDS011;21556;55.782;37.528;2023-01-01T12:24:11;4.15;;;3.63;;
35434;SDS011;21556;55.782;37.528;2023-01-01T12:34:17;5.32;;;3.90;;
35434;SDS011;21556;55.782;37.528;2023-01-01T12:36:59;6.63;;;4.50;;
35434;SDS011;21556;55.782;37.528;2023-01-01T12:47:13;5.77;;;3.77;;
35434;SDS011;21556;55.782;37.528;2023-01-01T12:49:56;5.20;;;4.13;;
35434;SDS011;21556;55.782;37.528;2023-01-01T12:57:39;5.18;;;4.00;;
35434;SDS011;21556;55.782;37.528;2023-01-01T13:00:12;5.43;;;3.67;;
35434;SDS011;21556;55.782;37.528;2023-01-01T13:02:40;6.83;;;4.23;;
35434;SDS011;21556;55.782;37.528;2023-01-01T13:05:16;4.75;;;3.92;;
35434;SDS011;21556;55.782;37.528;2023-01-01T13:07:44;5.78;;;3.78;;
35434;SDS011;21556;55.782;37.528;2023-01-01T13:10:56;5.05;;;4.45;;
35434;SDS011;21556;55.782;37.528;2023-01-01T13:12:58;4.53;;;3.63;;
35434;SDS011;21556;55.782;37.528;2023-01-01T13:15:40;3.95;;;3.47;;
35434;SDS011;21556;55.782;37.528;2023-01-01T13:20:39;4.75;;;4.25;;
35434;SDS011;21556;55.782;37.528;2023-01-01T13:23:48;5.15;;;3.88;;
35434;SDS011;21556;55.782;37.528;2023-01-01T13:28:39;7.88;;;3.72;;
35434;SDS011;21556;55.782;37.528;2023-01-01T13:31:04;5.60;;;3.83;;
35434;SDS011;21556;55.782;37.528;2023-01-01T13:33:30;5.30;;;4.07;;
35434;SDS011;21556;55.782;37.528;2023-01-01T13:38:50;4.32;;;3.60;;
35434;SDS011;21556;55.782;37.528;2023-01-01T13:54:05;5.20;;;3.70;;
35434;SDS011;21556;55.782;37.528;2023-01-01T14:04:03;4.78;;;4.10;;
35434;SDS011;21556;55.782;37.528;2023-01-01T14:06:35;4.95;;;3.60;;
35434;SDS011;21556;55.782;37.528;2023-01-01T14:09:06;4.72;;;3.90;;
35434;SDS011;21556;55.782;37.528;2023-01-01T14:11:34;5.05;;;3.88;;
35434;SDS011;21556;55.782;37.528;2023-01-01T14:14:00;4.63;;;3.63;;
35434;SDS011;21556;55.782;37.528;2023-01-01T14:16:26;4.63;;;3.53;;
35434;SDS011;21556;55.782;37.528;2023-01-01T14:18:52;4.75;;;3.50;;
35434;SDS011;21556;55.782;37.528;2023-01-01T14:21:20;4.97;;;3.30;;
35434;SDS011;21556;55.782;37.528;2023-01-01T14:23:50;3.83;;;3.20;;
35434;SDS011;21556;55.782;37.528;2023-01-01T14:26:17;4.22;;;3.83;;
35434;SDS011;21556;55.782;37.528;2023-01-01T14:28:44;4.65;;;3.53;;
35434;SDS011;21556;55.782;37.528;2023-01-01T14:31:17;4.57;;;3.33;;
35434;SDS011;21556;55.782;37.528;2023-01-01T14:33:43;4.03;;;3.33;;
35434;SDS011;21556;55.782;37.528;2023-01-01T14:38:42;3.55;;;2.95;;
35434;SDS011;21556;55.782;37.528;2023-01-01T14:41:10;4.75;;;3.95;;
35434;SDS011;21556;55.782;37.528;2023-01-01T14:43:37;3.25;;;2.95;;
35434;SDS011;21556;55.782;37.528;2023-01-01T14:46:05;4.97;;;3.42;;
35434;SDS011;21556;55.782;37.528;2023-01-01T14:50:59;4.65;;;3.55;;
35434;SDS011;21556;55.782;37.528;2023-01-01T14:53:29;3.80;;;2.83;;
35434;SDS011;21556;55.782;37.528;2023-01-01T14:55:58;3.90;;;3.30;;
35434;SDS011;21556;55.782;37.528;2023-01-01T14:58:25;3.50;;;3.13;;
35434;SDS011;21556;55.782;37.528;2023-01-01T15:00:51;3.90;;;3.47;;
35434;SDS011;21556;55.782;37.528;2023-01-01T15:03:18;3.65;;;3.17;;
35434;SDS011;21556;55.782;37.528;2023-01-01T15:05:45;3.42;;;3.10;;
35434;SDS011;21556;55.782;37.528;2023-01-01T15:11:03;4.85;;;3.55;;
35434;SDS011;21556;55.782;37.528;2023-01-01T15:13:29;4.15;;;3.28;;
35434;SDS011;21556;55.782;37.528;2023-01-01T15:16:14;4.43;;;3.13;;
35434;SDS011;21556;55.782;37.528;2023-01-01T15:18:41;5.10;;;3.67;;
35434;SDS011;21556;55.782;37.528;2023-01-01T15:21:17;3.90;;;3.38;;
35434;SDS011;21556;55.782;37.528;2023-01-01T15:26:12;4.47;;;3.10;;
35434;SDS011;21556;55.782;37.528;2023-01-01T15:28:40;4.05;;;3.25;;
35434;SDS011;21556;55.782;37.528;2023-01-01T15:31:06;5.82;;;3.78;;
35434;SDS011;21556;55.782;37.528;2023-01-01T15:33:32;4.40;;;3.35;;
35434;SDS011;21556;55.782;37.528;2023-01-01T15:35:58;4.57;;;3.67;;
35434;SDS011;21556;55.782;37.528;2023-01-01T15:38:28;5.28;;;3.40;;
35434;SDS011;21556;55.782;37.528;2023-01-01T15:40:55;3.97;;;2.83;;
35434;SDS011;21556;55.782;37.528;2023-01-01T15:43:24;4.00;;;3.20;;
35434;SDS011;21556;55.782;37.528;2023-01-01T15:45:57;5.15;;;3.80;;
35434;SDS011;21556;55.782;37.528;2023-01-01T15:48:28;5.35;;;3.80;;
35434;SDS011;21556;55.782;37.528;2023-01-01T15:50:59;4.53;;;3.88;;
35434;SDS011;21556;55.782;37.528;2023-01-01T15:53:27;5.30;;;4.65;;
35434;SDS011;21556;55.782;37.528;2023-01-01T15:55:54;4.88;;;4.13;;
35434;SDS011;21556;55.782;37.528;2023-01-01T16:00:56;5.50;;;4.93;;
35434;SDS011;21556;55.782;37.528;2023-01-01T16:03:24;7.28;;;4.82;;
35434;SDS011;21556;55.782;37.528;2023-01-01T16:05:52;5.50;;;3.13;;
35434;SDS011;21556;55.782;37.528;2023-01-01T16:08:18;7.43;;;4.90;;
35434;SDS011;21556;55.782;37.528;2023-01-01T16:10:46;7.63;;;4.88;;
35434;SDS011;21556;55.782;37.528;2023-01-01T16:13:12;6.93;;;4.75;;
35434;SDS011;21556;55.782;37.528;2023-01-01T16:15:48;6.70;;;5.07;;
35434;SDS011;21556;55.782;37.528;2023-01-01T16:18:15;6.28;;;5.20;;
35434;SDS011;21556;55.782;37.528;2023-01-01T16:20:40;9.73;;;6.40;;
35434;SDS011;21556;55.782;37.528;2023-01-01T16:23:07;5.97;;;5.22;;
35434;SDS011;21556;55.782;37.528;2023-01-01T16:25:33;6.82;;;4.82;;
35434;SDS011;21556;55.782;37.528;2023-01-01T16:27:58;5.25;;;4.47;;
35434;SDS011;21556;55.782;37.528;2023-01-01T16:30:24;5.20;;;4.65;;
35434;SDS011;21556;55.782;37.528;2023-01-01T16:32:50;5.75;;;4.85;;
35434;SDS011;21556;55.782;37.528;2023-01-01T16:35:17;7.97;;;5.53;;
35434;SDS011;21556;55.782;37.528;2023-01-01T16:37:43;8.88;;;5.82;;
35434;SDS011;21556;55.782;37.528;2023-01-01T16:40:09;8.00;;;5.97;;
35434;SDS011;21556;55.782;37.528;2023-01-01T16:42:35;6.82;;;5.30;;
35434;SDS011;21556;55.782;37.528;2023-01-01T16:45:02;8.00;;;5.70;;
35434;SDS011;21556;55.782;37.528;2023-01-01T16:47:28;8.25;;;5.70;;
35434;SDS011;21556;55.782;37.528;2023-01-01T16:49:54;7.80;;;4.97;;
35434;SDS011;21556;55.782;37.528;2023-01-01T16:52:19;7.25;;;5.13;;
35434;SDS011;21556;55.782;37.528;2023-01-01T16:54:45;7.53;;;6.13;;
35434;SDS011;21556;55.782;37.528;2023-01-01T16:57:11;7.05;;;5.63;;
35434;SDS011;21556;55.782;37.528;2023-01-01T16:59:36;8.05;;;5.60;;
35434;SDS011;21556;55.782;37.528;2023-01-01T17:02:02;7.70;;;5.60;;